Time;durP1;ratioP1;P1;durP2;ratioP2;P2;SDS_P1;SDS_P2;PMS_P1;PMS_P2;Temp;Humidity;BMP_temperature;BMP_pressure;BME280_temperature;BME280_humidity;BME280_pressure;Samples;Min_cycle;Max_cycle;Signal;HPM_P1;HPM_P2
2022/05/05 00:00:06;;;;;;;;;;;;;;;;;;5054007;28;19917;-46
2022/05/05 00:02:32;;;;;;;;;;;;;;;;;;5053960;28;19998;-54
2022/05/05 00:04:59;;;;;;;;;;;;;;;;;;5053726;28;20012;-53
2022/05/05 00:07:25;;;;;;;;;;;;;;;;;;5053306;28;19932;-55
2022/05/05 00:09:52;;;;;;;;;;;;;;;;;;5067326;28;19908;-51
2022/05/05 00:15:04;;;;;;;;;;;;;;;;;;5073262;28;19919;-51
2022/05/05 00:17:33;;;;;;;;;;;;;;;;;;5073426;28;19909;-50
2022/05/05 00:20:00;;;;;;;;;;;;;;;;;;5073454;28;19909;-52
2022/05/05 00:22:26;;;;;;;;;;;;;;;;;;5072864;28;20031;-53
2022/05/05 00:24:53;;;;;;;;;;;;;;;;;;5073164;28;19912;-46
2022/05/05 00:27:21;;;;;;;;;;;;;;;;;;5073447;28;19913;-49
2022/05/05 00:29:48;;;;;;;;;;;;;;;;;;5073163;28;19908;-51
2022/05/05 00:32:15;;;;;;;;;;;;;;;;;;5073197;28;19908;-52
2022/05/05 00:34:41;;;;;;;;;;;;;;;;;;5064659;28;19917;-52
2022/05/05 00:37:08;;;;;;;;;;;;;;;;;;5053138;28;19909;-47
2022/05/05 00:39:34;;;;;;;;;;;;;;;;;;5053329;28;19916;-51
2022/05/05 00:42:01;;;;;;;;;;;;;;;;;;5052830;28;19916;-47
2022/05/05 00:44:28;;;;;;;;;;;;;;;;;;5052373;28;20310;-50
2022/05/05 00:46:54;;;;;;;;;;;;;;;;;;5053285;28;19909;-44
2022/05/05 00:49:21;;;;;;;;;;;;;;;;;;5053440;28;19909;-49
2022/05/05 00:51:47;;;;;;;;;;;;;;;;;;5070275;28;19909;-52
2022/05/05 00:54:13;;;;;;;;;;;;;;;;;;5072952;28;19920;-51
2022/05/05 00:56:40;;;;;;;;;;;;;;;;;;5072484;28;19912;-47
2022/05/05 00:59:06;;;;;;;;;;;;;;;;;;5072740;28;19985;-52
2022/05/05 01:01:33;;;;;;;;;;;;;;;;;;5072648;28;20334;-50
2022/05/05 01:03:59;;;;;;;;;;;;;;;;;;5073157;28;19912;-50
2022/05/05 01:06:26;;;;;;;;;;;;;;;;;;5072058;28;19927;-49
2022/05/05 01:08:52;;;;;;;;;;;;;;;;;;5071698;28;19912;-53
2022/05/05 01:11:19;;;;;;;;;;;;;;;;;;5072895;28;19920;-46
2022/05/05 01:13:45;;;;;;;;;;;;;;;;;;5072644;28;20054;-51
2022/05/05 01:16:12;;;;;;;;;;;;;;;;;;5072653;28;19912;-49
2022/05/05 01:18:39;;;;;;;;;;;;;;;;;;5070825;28;19912;-45
2022/05/05 01:21:05;;;;;;;;;;;;;;;;;;5072199;28;19909;-49
2022/05/05 01:23:32;;;;;;;;;;;;;;;;;;5073134;28;19962;-45
2022/05/05 01:28:43;;;;;;;;;;;;;;;;;;5072235;28;20001;-49
2022/05/05 01:31:09;;;;;;;;;;;;;;;;;;5072190;28;19950;-53
2022/05/05 01:33:36;;;;;;;;;;;;;;;;;;5072274;28;20003;-45
2022/05/05 01:36:02;;;;;;;;;;;;;;;;;;5072180;28;19938;-47
2022/05/05 01:38:39;;;;;;;;;;;;;;;;;;5072227;28;20081;-50
2022/05/05 01:41:05;;;;;;;;;;;;;;;;;;5072767;28;19958;-55
2022/05/05 01:43:32;;;;;;;;;;;;;;;;;;5072491;28;20004;-50
2022/05/05 01:45:58;;;;;;;;;;;;;;;;;;5072448;28;19916;-50
2022/05/05 01:48:25;;;;;;;;;;;;;;;;;;5072318;28;20007;-48
2022/05/05 01:50:51;;;;;;;;;;;;;;;;;;5072412;28;19912;-46
2022/05/05 01:53:18;;;;;;;;;;;;;;;;;;5072503;28;20351;-50
2022/05/05 01:55:44;;;;;;;;;;;;;;;;;;5072020;28;19997;-52
2022/05/05 01:58:11;;;;;;;;;;;;;;;;;;5071727;28;19915;-48
2022/05/05 02:00:38;;;;;;;;;;;;;;;;;;5071757;28;19912;-53
2022/05/05 02:03:12;;;;;;;;;;;;;;;;;;5072228;28;19915;-49
2022/05/05 02:05:39;;;;;;;;;;;;;;;;;;5071338;28;19920;-50
2022/05/05 02:08:05;;;;;;;;;;;;;;;;;;5072465;28;19932;-52
2022/05/05 02:10:32;;;;;;;;;;;;;;;;;;5070604;28;19916;-52
2022/05/05 02:12:58;;;;;;;;;;;;;;;;;;5071874;28;19912;-53
2022/05/05 02:15:25;;;;;;;;;;;;;;;;;;5072477;28;20382;-47
2022/05/05 02:17:53;;;;;;;;;;;;;;;;;;5072427;28;20266;-48
2022/05/05 02:20:19;;;;;;;;;;;;;;;;;;5066810;28;20263;-48
2022/05/05 02:22:46;;;;;;;;;;;;;;;;;;5051924;28;20325;-49
2022/05/05 02:25:12;;;;;;;;;;;;;;;;;;5069772;28;19908;-49
2022/05/05 02:27:38;;;;;;;;;;;;;;;;;;5071814;28;19908;-54
2022/05/05 02:30:05;;;;;;;;;;;;;;;;;;5075126;28;19912;-47
2022/05/05 02:32:31;;;;;;;;;;;;;;;;;;5074149;28;19909;-46
2022/05/05 02:34:58;;;;;;;;;;;;;;;;;;5075840;28;20272;-53
2022/05/05 02:40:09;;;;;;;;;;;;;;;;;;5075757;28;20027;-49
2022/05/05 02:42:35;;;;;;;;;;;;;;;;;;5075065;28;19909;-52
2022/05/05 02:45:02;;;;;;;;;;;;;;;;;;5075543;28;19908;-51
2022/05/05 02:47:28;;;;;;;;;;;;;;;;;;5074460;28;19909;-50
2022/05/05 02:49:55;;;;;;;;;;;;;;;;;;5075458;28;19909;-54
2022/05/05 02:52:21;;;;;;;;;;;;;;;;;;5074835;28;19909;-51
2022/05/05 02:54:50;;;;;;;;;;;;;;;;;;5075599;28;19912;-48
2022/05/05 02:57:16;;;;;;;;;;;;;;;;;;5075122;28;20258;-51
2022/05/05 02:59:43;;;;;;;;;;;;;;;;;;5075450;28;20299;-50
2022/05/05 03:02:09;;;;;;;;;;;;;;;;;;5059134;28;19952;-51
2022/05/05 03:04:36;;;;;;;;;;;;;;;;;;5055074;28;20308;-51
2022/05/05 03:07:02;;;;;;;;;;;;;;;;;;5055143;28;19921;-53
2022/05/05 03:09:29;;;;;;;;;;;;;;;;;;5055327;28;19916;-52
2022/05/05 03:11:55;;;;;;;;;;;;;;;;;;5054835;28;19909;-55
2022/05/05 03:14:22;;;;;;;;;;;;;;;;;;5054540;28;19917;-50
2022/05/05 03:16:48;;;;;;;;;;;;;;;;;;5054724;28;19931;-53
2022/05/05 03:19:14;;;;;;;;;;;;;;;;;;5054751;28;19909;-50
2022/05/05 03:21:41;;;;;;;;;;;;;;;;;;5054018;28;19916;-54
2022/05/05 03:24:07;;;;;;;;;;;;;;;;;;5065860;28;19909;-50
2022/05/05 03:26:34;;;;;;;;;;;;;;;;;;5075019;28;19915;-52
2022/05/05 03:29:01;;;;;;;;;;;;;;;;;;5075047;28;19911;-46
2022/05/05 03:31:27;;;;;;;;;;;;;;;;;;5074783;28;19909;-48
2022/05/05 03:33:53;;;;;;;;;;;;;;;;;;5074681;28;19924;-52
2022/05/05 03:36:20;;;;;;;;;;;;;;;;;;5074294;28;20381;-48
2022/05/05 03:38:46;;;;;;;;;;;;;;;;;;5074213;28;19962;-48
2022/05/05 03:41:13;;;;;;;;;;;;;;;;;;5073895;28;19915;-51
2022/05/05 03:43:39;;;;;;;;;;;;;;;;;;5074416;28;19920;-46
2022/05/05 03:46:06;;;;;;;;;;;;;;;;;;5074423;28;19924;-48
2022/05/05 03:48:32;;;;;;;;;;;;;;;;;;5074309;28;19909;-49
2022/05/05 03:50:59;;;;;;;;;;;;;;;;;;5074214;28;19999;-52
2022/05/05 03:53:25;;;;;;;;;;;;;;;;;;5073892;28;19916;-52
2022/05/05 03:55:52;;;;;;;;;;;;;;;;;;5074227;28;19909;-54
2022/05/05 03:58:18;;;;;;;;;;;;;;;;;;5073892;28;19909;-50
2022/05/05 04:00:46;;;;;;;;;;;;;;;;;;5071765;28;19908;-52
2022/05/05 04:03:31;;;;;;;;;;;;;;;;;;5073655;28;19909;-52
2022/05/05 04:05:57;;;;;;;;;;;;;;;;;;5073660;28;20050;-48
2022/05/05 04:08:24;;;;;;;;;;;;;;;;;;5073439;28;20058;-45
2022/05/05 04:10:50;;;;;;;;;;;;;;;;;;5074053;28;19910;-43
2022/05/05 04:13:18;;;;;;;;;;;;;;;;;;5074233;28;19912;-40
2022/05/05 04:15:45;;;;;;;;;;;;;;;;;;5074145;28;19942;-44
2022/05/05 04:18:11;;;;;;;;;;;;;;;;;;5073187;28;19915;-43
2022/05/05 04:20:37;;;;;;;;;;;;;;;;;;5073134;28;19977;-47
2022/05/05 04:23:04;;;;;;;;;;;;;;;;;;5072908;28;19966;-53
2022/05/05 04:25:30;;;;;;;;;;;;;;;;;;5073493;28;19913;-46
2022/05/05 04:27:57;;;;;;;;;;;;;;;;;;5073418;28;19908;-46
2022/05/05 04:30:23;;;;;;;;;;;;;;;;;;5073138;28;19954;-52
2022/05/05 04:32:50;;;;;;;;;;;;;;;;;;5073064;28;19923;-55
2022/05/05 04:35:16;;;;;;;;;;;;;;;;;;5072776;28;19943;-50
2022/05/05 04:37:43;;;;;;;;;;;;;;;;;;5073466;28;19999;-48
2022/05/05 04:40:10;;;;;;;;;;;;;;;;;;5073318;28;19954;-53
2022/05/05 04:42:37;;;;;;;;;;;;;;;;;;5072942;28;19946;-43
2022/05/05 04:45:03;;;;;;;;;;;;;;;;;;5071924;28;20345;-46
2022/05/05 04:47:30;;;;;;;;;;;;;;;;;;5071753;28;20386;-46
2022/05/05 04:49:57;;;;;;;;;;;;;;;;;;5070018;28;20367;-45
2022/05/05 04:52:24;;;;;;;;;;;;;;;;;;5052599;28;20004;-46
2022/05/05 04:54:51;;;;;;;;;;;;;;;;;;5051937;28;20377;-49
2022/05/05 04:57:18;;;;;;;;;;;;;;;;;;5072438;28;19909;-48
2022/05/05 04:59:45;;;;;;;;;;;;;;;;;;5073074;28;19958;-49
2022/05/05 05:02:11;;;;;;;;;;;;;;;;;;5073134;28;20352;-49
2022/05/05 05:04:38;;;;;;;;;;;;;;;;;;5073092;28;20309;-52
2022/05/05 05:07:04;;;;;;;;;;;;;;;;;;5072726;28;19920;-54
2022/05/05 05:09:31;;;;;;;;;;;;;;;;;;5073010;28;19935;-47
2022/05/05 05:11:57;;;;;;;;;;;;;;;;;;5072666;28;19909;-52
2022/05/05 05:14:24;;;;;;;;;;;;;;;;;;5072374;28;19920;-52
2022/05/05 05:16:50;;;;;;;;;;;;;;;;;;5072764;28;19941;-50
2022/05/05 05:19:17;;;;;;;;;;;;;;;;;;5071985;28;19911;-47
2022/05/05 05:21:43;;;;;;;;;;;;;;;;;;5071601;28;19908;-55
2022/05/05 05:24:09;;;;;;;;;;;;;;;;;;5072273;28;19913;-48
2022/05/05 05:26:36;;;;;;;;;;;;;;;;;;5072307;28;20355;-53
2022/05/05 05:29:02;;;;;;;;;;;;;;;;;;5072163;28;19913;-56
2022/05/05 05:31:29;;;;;;;;;;;;;;;;;;5072640;28;20000;-54
2022/05/05 05:33:55;;;;;;;;;;;;;;;;;;5070938;28;19939;-47
2022/05/05 05:36:22;;;;;;;;;;;;;;;;;;5071773;28;19939;-52
2022/05/05 05:38:48;;;;;;;;;;;;;;;;;;5072515;28;19908;-50
2022/05/05 05:41:15;;;;;;;;;;;;;;;;;;5071975;28;20360;-50
2022/05/05 05:43:42;;;;;;;;;;;;;;;;;;5072417;28;19956;-51
2022/05/05 05:46:09;;;;;;;;;;;;;;;;;;5072628;28;19916;-54
2022/05/05 05:48:37;;;;;;;;;;;;;;;;;;5071406;28;19948;-50
2022/05/05 05:51:03;;;;;;;;;;;;;;;;;;5071389;28;20291;-54
2022/05/05 05:53:30;;;;;;;;;;;;;;;;;;5072417;28;19923;-52
2022/05/05 05:55:56;;;;;;;;;;;;;;;;;;5072020;28;19915;-46
2022/05/05 05:58:23;;;;;;;;;;;;;;;;;;5072070;28;19923;-52
2022/05/05 06:00:49;;;;;;;;;;;;;;;;;;5071312;28;20062;-50
2022/05/05 06:06:00;;;;;;;;;;;;;;;;;;5075414;28;19928;-54
2022/05/05 06:08:27;;;;;;;;;;;;;;;;;;5076164;28;19916;-45
2022/05/05 06:10:53;;;;;;;;;;;;;;;;;;5076106;28;19909;-47
2022/05/05 06:13:20;;;;;;;;;;;;;;;;;;5076342;28;19920;-44
2022/05/05 06:15:46;;;;;;;;;;;;;;;;;;5075482;28;19912;-47
2022/05/05 06:18:13;;;;;;;;;;;;;;;;;;5075576;28;19908;-49
2022/05/05 06:20:39;;;;;;;;;;;;;;;;;;5074154;28;19932;-52
2022/05/05 06:23:06;;;;;;;;;;;;;;;;;;5075571;28;20428;-48
2022/05/05 06:25:32;;;;;;;;;;;;;;;;;;5076153;28;19908;-52
2022/05/05 06:27:58;;;;;;;;;;;;;;;;;;5075463;28;19909;-46
2022/05/05 06:30:25;;;;;;;;;;;;;;;;;;5075807;28;19909;-50
2022/05/05 06:32:51;;;;;;;;;;;;;;;;;;5076164;28;19912;-49
2022/05/05 06:35:18;;;;;;;;;;;;;;;;;;5074633;28;19912;-47
2022/05/05 06:37:50;;;;;;;;;;;;;;;;;;5075286;28;19916;-52
2022/05/05 06:40:17;;;;;;;;;;;;;;;;;;5073740;28;19989;-48
2022/05/05 06:42:43;;;;;;;;;;;;;;;;;;5074855;28;20283;-49
2022/05/05 06:45:10;;;;;;;;;;;;;;;;;;5071523;28;19917;-45
2022/05/05 06:47:36;;;;;;;;;;;;;;;;;;5055246;28;19909;-53
2022/05/05 06:50:02;;;;;;;;;;;;;;;;;;5054787;28;19916;-49
2022/05/05 06:52:29;;;;;;;;;;;;;;;;;;5059110;28;19956;-53
2022/05/05 06:54:55;;;;;;;;;;;;;;;;;;5074622;28;19912;-47
2022/05/05 06:57:23;;;;;;;;;;;;;;;;;;5074886;28;19957;-50
2022/05/05 06:59:49;;;;;;;;;;;;;;;;;;5074912;28;19916;-50
2022/05/05 07:02:16;;;;;;;;;;;;;;;;;;5074801;28;19909;-54
2022/05/05 07:07:27;;;;;;;;;;;;;;;;;;5074549;28;19927;-48
2022/05/05 07:12:38;;;;;;;;;;;;;;;;;;5074878;28;20021;-47
2022/05/05 07:15:05;;;;;;;;;;;;;;;;;;5073532;28;20320;-51
2022/05/05 07:17:31;;;;;;;;;;;;;;;;;;5073952;28;20279;-50
2022/05/05 07:19:58;;;;;;;;;;;;;;;;;;5074568;28;19939;-49
2022/05/05 07:22:24;;;;;;;;;;;;;;;;;;5074269;28;19954;-49
2022/05/05 07:24:51;;;;;;;;;;;;;;;;;;5075079;28;19908;-51
2022/05/05 07:27:17;;;;;;;;;;;;;;;;;;5074364;28;19916;-53
2022/05/05 07:29:44;;;;;;;;;;;;;;;;;;5074599;28;19908;-52
2022/05/05 07:32:10;;;;;;;;;;;;;;;;;;5074337;28;19908;-50
2022/05/05 07:34:38;;;;;;;;;;;;;;;;;;5073723;28;19916;-52
2022/05/05 07:37:04;;;;;;;;;;;;;;;;;;5073842;28;19909;-49
2022/05/05 07:39:31;;;;;;;;;;;;;;;;;;5074296;28;19909;-47
2022/05/05 07:41:57;;;;;;;;;;;;;;;;;;5074243;28;19912;-49
2022/05/05 07:44:24;;;;;;;;;;;;;;;;;;5073043;28;19915;-43
2022/05/05 07:46:50;;;;;;;;;;;;;;;;;;5073342;28;20236;-43
2022/05/05 07:49:17;;;;;;;;;;;;;;;;;;5073568;28;19909;-51
2022/05/05 07:51:43;;;;;;;;;;;;;;;;;;5073529;28;20408;-51
2022/05/05 07:56:54;;;;;;;;;;;;;;;;;;5073389;28;20317;-49
2022/05/05 07:59:21;;;;;;;;;;;;;;;;;;5073702;28;19939;-43
2022/05/05 08:01:47;;;;;;;;;;;;;;;;;;5073595;28;19942;-41
2022/05/05 08:04:14;;;;;;;;;;;;;;;;;;5073509;28;20003;-46
2022/05/05 08:06:40;;;;;;;;;;;;;;;;;;5073508;28;20351;-44
2022/05/05 08:09:07;;;;;;;;;;;;;;;;;;5073164;28;20370;-54
2022/05/05 08:11:35;;;;;;;;;;;;;;;;;;5073851;28;20308;-47
2022/05/05 08:14:01;;;;;;;;;;;;;;;;;;5073883;28;19966;-52
2022/05/05 08:16:28;;;;;;;;;;;;;;;;;;5073115;28;19908;-51
2022/05/05 08:18:54;;;;;;;;;;;;;;;;;;5073503;28;19966;-50
2022/05/05 08:21:21;;;;;;;;;;;;;;;;;;5073280;28;19916;-52
2022/05/05 08:23:47;;;;;;;;;;;;;;;;;;5073019;28;19908;-53
2022/05/05 08:28:59;;;;;;;;;;;;;;;;;;5073528;28;20000;-55
2022/05/05 08:31:26;;;;;;;;;;;;;;;;;;5073092;28;19909;-46
2022/05/05 08:33:52;;;;;;;;;;;;;;;;;;5072433;28;19916;-52
2022/05/05 08:36:19;;;;;;;;;;;;;;;;;;5073061;28;19992;-53
2022/05/05 08:38:46;;;;;;;;;;;;;;;;;;5073074;28;19908;-50
2022/05/05 08:41:13;;;;;;;;;;;;;;;;;;5072901;28;19931;-46
2022/05/05 08:43:39;;;;;;;;;;;;;;;;;;5073051;28;20012;-49
2022/05/05 08:46:06;;;;;;;;;;;;;;;;;;5073059;28;20390;-47
2022/05/05 08:48:32;;;;;;;;;;;;;;;;;;5072652;28;20335;-46
2022/05/05 08:51:00;;;;;;;;;;;;;;;;;;5072931;28;19908;-52
2022/05/05 08:53:26;;;;;;;;;;;;;;;;;;5072424;28;19924;-52
2022/05/05 08:55:53;;;;;;;;;;;;;;;;;;5073303;28;19909;-52
2022/05/05 08:58:19;;;;;;;;;;;;;;;;;;5072965;28;20007;-46
2022/05/05 09:00:45;;;;;;;;;;;;;;;;;;5073131;28;20359;-50
2022/05/05 09:03:12;;;;;;;;;;;;;;;;;;5072666;28;19916;-46
2022/05/05 09:05:38;;;;;;;;;;;;;;;;;;5072237;28;19915;-44
2022/05/05 09:08:05;;;;;;;;;;;;;;;;;;5069604;28;19974;-44
2022/05/05 09:10:31;;;;;;;;;;;;;;;;;;5052659;28;20367;-45
2022/05/05 09:12:58;;;;;;;;;;;;;;;;;;5052546;28;20347;-47
2022/05/05 09:15:24;;;;;;;;;;;;;;;;;;5053050;28;20315;-46
2022/05/05 09:17:51;;;;;;;;;;;;;;;;;;5052591;28;20335;-43
2022/05/05 09:20:17;;;;;;;;;;;;;;;;;;5052660;28;20352;-47
2022/05/05 09:22:44;;;;;;;;;;;;;;;;;;5052498;28;19948;-45
2022/05/05 09:25:11;;;;;;;;;;;;;;;;;;5070677;28;19958;-51
2022/05/05 09:27:38;;;;;;;;;;;;;;;;;;5072415;28;19958;-51
2022/05/05 09:30:04;;;;;;;;;;;;;;;;;;5072092;28;19909;-48
2022/05/05 09:32:31;;;;;;;;;;;;;;;;;;5059407;28;19909;-44
2022/05/05 09:34:57;;;;;;;;;;;;;;;;;;5051930;28;19992;-48
2022/05/05 09:37:24;;;;;;;;;;;;;;;;;;5052417;28;20335;-50
2022/05/05 09:39:50;;;;;;;;;;;;;;;;;;5051852;28;19909;-48
2022/05/05 09:42:17;;;;;;;;;;;;;;;;;;5052571;28;19970;-46
2022/05/05 09:44:43;;;;;;;;;;;;;;;;;;5053218;28;19908;-45
2022/05/05 09:47:10;;;;;;;;;;;;;;;;;;5052167;28;19913;-51
2022/05/05 09:49:36;;;;;;;;;;;;;;;;;;5052375;28;19963;-48
2022/05/05 09:57:41;;;;;;;;;;;;;;;;;;5057520;28;20033;-49
2022/05/05 10:00:23;;;;;;;;;;;;;;;;;;5072405;28;19916;-51
2022/05/05 10:05:34;;;;;;;;;;;;;;;;;;5032087;28;19916;-52
2022/05/05 10:08:01;;;;;;;;;;;;;;;;;;5032429;28;19909;-48
2022/05/05 10:10:28;;;;;;;;;;;;;;;;;;5032482;28;19909;-51
2022/05/05 10:12:57;;;;;;;;;;;;;;;;;;5069426;28;19999;-50
2022/05/05 10:15:23;;;;;;;;;;;;;;;;;;5072552;28;19998;-55
2022/05/05 10:17:50;;;;;;;;;;;;;;;;;;5072559;28;19913;-48
2022/05/05 10:20:16;;;;;;;;;;;;;;;;;;5071759;28;19919;-51
2022/05/05 10:22:43;;;;;;;;;;;;;;;;;;5072293;28;19913;-53
2022/05/05 10:25:09;;;;;;;;;;;;;;;;;;5071857;28;19916;-50
2022/05/05 10:27:35;;;;;;;;;;;;;;;;;;5072428;28;19912;-55
2022/05/05 10:30:02;;;;;;;;;;;;;;;;;;5072073;28;19908;-53
2022/05/05 10:32:30;;;;;;;;;;;;;;;;;;5072392;28;19909;-54
2022/05/05 10:34:56;;;;;;;;;;;;;;;;;;5071301;28;20423;-57
2022/05/05 10:37:23;;;;;;;;;;;;;;;;;;5072192;28;20336;-57
2022/05/05 10:39:49;;;;;;;;;;;;;;;;;;5072158;28;19968;-53
2022/05/05 10:42:16;;;;;;;;;;;;;;;;;;5071919;28;20314;-49
2022/05/05 10:44:42;;;;;;;;;;;;;;;;;;5071764;28;19916;-49
2022/05/05 10:47:09;;;;;;;;;;;;;;;;;;5072053;28;20381;-56
2022/05/05 10:49:39;;;;;;;;;;;;;;;;;;5071893;28;20256;-55
2022/05/05 10:52:05;;;;;;;;;;;;;;;;;;5069688;28;20302;-55
2022/05/05 10:54:32;;;;;;;;;;;;;;;;;;5056023;28;19939;-56
2022/05/05 10:57:00;;;;;;;;;;;;;;;;;;5055419;28;19908;-55
2022/05/05 10:59:26;;;;;;;;;;;;;;;;;;5055610;28;20375;-59
2022/05/05 11:01:52;;;;;;;;;;;;;;;;;;5055772;28;20311;-49
2022/05/05 11:04:20;;;;;;;;;;;;;;;;;;5055575;28;20417;-56
2022/05/05 11:06:49;;;;;;;;;;;;;;;;;;5058755;28;19936;-56
2022/05/05 11:09:16;;;;;;;;;;;;;;;;;;5075586;28;19977;-54
2022/05/05 11:11:42;;;;;;;;;;;;;;;;;;5074846;28;19908;-46
2022/05/05 11:21:31;;;;;;;;;;;;;;;;;;5075564;28;19916;-53
2022/05/05 11:22:24;;;;;;;;;;;;;;;;;;5075536;28;19912;-49
2022/05/05 11:24:51;;;;;;;;;;;;;;;;;;5075115;28;19913;-55
2022/05/05 11:27:18;;;;;;;;;;;;;;;;;;5070197;28;19935;-50
2022/05/05 11:29:45;;;;;;;;;;;;;;;;;;5055103;28;19916;-54
2022/05/05 11:32:12;;;;;;;;;;;;;;;;;;5055422;28;20023;-53
2022/05/05 11:34:39;;;;;;;;;;;;;;;;;;5054203;28;19917;-42
2022/05/05 11:37:06;;;;;;;;;;;;;;;;;;5054832;28;19912;-44
2022/05/05 11:39:33;;;;;;;;;;;;;;;;;;5046832;28;20425;-47
2022/05/05 11:41:59;;;;;;;;;;;;;;;;;;5051111;28;20588;-58
2022/05/05 11:44:27;;;;;;;;;;;;;;;;;;5051973;28;19952;-49
2022/05/05 11:46:53;;;;;;;;;;;;;;;;;;5051994;28;19924;-59
2022/05/05 11:49:20;;;;;;;;;;;;;;;;;;5053210;28;19935;-58
2022/05/05 11:51:47;;;;;;;;;;;;;;;;;;5048138;28;19912;-53
2022/05/05 11:54:16;;;;;;;;;;;;;;;;;;5051194;28;19975;-56
2022/05/05 11:56:43;;;;;;;;;;;;;;;;;;5053227;28;20330;-57
2022/05/05 12:01:54;;;;;;;;;;;;;;;;;;5044213;28;19920;-60
2022/05/05 12:04:22;;;;;;;;;;;;;;;;;;5052508;28;19909;-48
2022/05/05 12:06:49;;;;;;;;;;;;;;;;;;5058099;28;20012;-52
2022/05/05 12:09:15;;;;;;;;;;;;;;;;;;5050224;28;20004;-41
2022/05/05 12:11:43;;;;;;;;;;;;;;;;;;5048710;28;19983;-46
2022/05/05 12:14:11;;;;;;;;;;;;;;;;;;5052302;28;19927;-40
2022/05/05 12:16:41;;;;;;;;;;;;;;;;;;5052393;28;20387;-46
2022/05/05 12:19:08;;;;;;;;;;;;;;;;;;5051855;28;19909;-47
2022/05/05 12:21:35;;;;;;;;;;;;;;;;;;5050777;28;19913;-51
2022/05/05 12:24:01;;;;;;;;;;;;;;;;;;5052677;28;19909;-51
2022/05/05 12:26:28;;;;;;;;;;;;;;;;;;5054226;28;19915;-44
2022/05/05 12:28:56;;;;;;;;;;;;;;;;;;5054335;28;19963;-54
2022/05/05 12:31:22;;;;;;;;;;;;;;;;;;5054113;28;19909;-48
2022/05/05 12:33:49;;;;;;;;;;;;;;;;;;5053855;28;19913;-48
2022/05/05 12:36:16;;;;;;;;;;;;;;;;;;5054041;28;19909;-51
2022/05/05 12:38:43;;;;;;;;;;;;;;;;;;5053722;28;20256;-52
2022/05/05 12:41:09;;;;;;;;;;;;;;;;;;5053765;28;20268;-54
2022/05/05 12:43:36;;;;;;;;;;;;;;;;;;5053909;28;19909;-54
2022/05/05 12:46:03;;;;;;;;;;;;;;;;;;5053818;28;19955;-54
2022/05/05 12:48:29;;;;;;;;;;;;;;;;;;5053066;28;19920;-51
2022/05/05 12:50:56;;;;;;;;;;;;;;;;;;5068650;28;20003;-54
2022/05/05 13:01:36;;;;;;;;;;;;;;;;;;5054149;28;19916;-54
2022/05/05 13:04:05;;;;;;;;;;;;;;;;;;5053046;28;20248;-52
2022/05/05 13:06:31;;;;;;;;;;;;;;;;;;5053024;28;19924;-56
2022/05/05 13:08:58;;;;;;;;;;;;;;;;;;5052587;28;19916;-54
2022/05/05 13:11:25;;;;;;;;;;;;;;;;;;5052890;28;19912;-49
2022/05/05 13:13:51;;;;;;;;;;;;;;;;;;5052277;28;19920;-52
2022/05/05 13:16:18;;;;;;;;;;;;;;;;;;5053201;28;19959;-55
2022/05/05 13:18:44;;;;;;;;;;;;;;;;;;5053284;28;19962;-57
2022/05/05 13:21:11;;;;;;;;;;;;;;;;;;5052943;28;19988;-50
2022/05/05 13:23:37;;;;;;;;;;;;;;;;;;5052998;28;19920;-57
2022/05/05 13:26:04;;;;;;;;;;;;;;;;;;5053013;28;19909;-52
2022/05/05 13:28:31;;;;;;;;;;;;;;;;;;5056988;28;19950;-53
2022/05/05 13:30:57;;;;;;;;;;;;;;;;;;5072884;28;19944;-55
2022/05/05 13:33:24;;;;;;;;;;;;;;;;;;5072856;28;19916;-57
2022/05/05 13:35:50;;;;;;;;;;;;;;;;;;5073429;28;20023;-54
2022/05/05 13:38:16;;;;;;;;;;;;;;;;;;5073082;28;19909;-51
2022/05/05 13:40:43;;;;;;;;;;;;;;;;;;5073070;28;19954;-53
2022/05/05 13:43:09;;;;;;;;;;;;;;;;;;5072895;28;19912;-55
2022/05/05 13:45:36;;;;;;;;;;;;;;;;;;5073666;28;20398;-55
2022/05/05 13:48:07;;;;;;;;;;;;;;;;;;5072982;28;19939;-56
2022/05/05 13:50:33;;;;;;;;;;;;;;;;;;5073321;28;19908;-52
2022/05/05 13:52:59;;;;;;;;;;;;;;;;;;5072940;28;19931;-53
2022/05/05 13:55:26;;;;;;;;;;;;;;;;;;5072692;28;20271;-52
2022/05/05 13:57:52;;;;;;;;;;;;;;;;;;5071850;28;20317;-47
2022/05/05 14:00:19;;;;;;;;;;;;;;;;;;5072886;28;20371;-52
2022/05/05 14:02:45;;;;;;;;;;;;;;;;;;5072920;28;19994;-56
2022/05/05 14:05:12;;;;;;;;;;;;;;;;;;5072744;28;20359;-53
2022/05/05 14:13:08;;;;;;;;;;;;;;;;;;5072469;28;19918;-53
2022/05/05 14:15:34;;;;;;;;;;;;;;;;;;5072977;28;19987;-53
2022/05/05 14:18:01;;;;;;;;;;;;;;;;;;5072262;28;20002;-48
2022/05/05 14:20:29;;;;;;;;;;;;;;;;;;5072682;28;19909;-53
2022/05/05 14:22:56;;;;;;;;;;;;;;;;;;5072195;28;19909;-59
2022/05/05 14:25:22;;;;;;;;;;;;;;;;;;5074499;28;19943;-55
2022/05/05 14:27:49;;;;;;;;;;;;;;;;;;5076466;28;19908;-43
2022/05/05 14:30:15;;;;;;;;;;;;;;;;;;5075942;28;19915;-49
2022/05/05 14:32:42;;;;;;;;;;;;;;;;;;5076304;28;20316;-55
2022/05/05 14:35:08;;;;;;;;;;;;;;;;;;5075790;28;20009;-53
2022/05/05 14:37:35;;;;;;;;;;;;;;;;;;5076654;28;19916;-54
2022/05/05 14:40:01;;;;;;;;;;;;;;;;;;5076306;28;20473;-51
2022/05/05 14:42:28;;;;;;;;;;;;;;;;;;5076361;28;19912;-50
2022/05/05 14:44:55;;;;;;;;;;;;;;;;;;5076127;28;20300;-55
2022/05/05 14:47:21;;;;;;;;;;;;;;;;;;5075724;28;20274;-54
2022/05/05 14:49:48;;;;;;;;;;;;;;;;;;5074613;28;20274;-53
2022/05/05 14:52:15;;;;;;;;;;;;;;;;;;5076228;28;19915;-52
2022/05/05 14:54:41;;;;;;;;;;;;;;;;;;5075693;28;19923;-51
2022/05/05 14:57:08;;;;;;;;;;;;;;;;;;5075907;28;19923;-57
2022/05/05 14:59:34;;;;;;;;;;;;;;;;;;5076097;28;19909;-57
2022/05/05 15:02:01;;;;;;;;;;;;;;;;;;5075959;28;19962;-56
2022/05/05 15:04:27;;;;;;;;;;;;;;;;;;5075901;28;19911;-53
2022/05/05 15:06:54;;;;;;;;;;;;;;;;;;5075653;28;19920;-50
2022/05/05 15:09:20;;;;;;;;;;;;;;;;;;5075297;28;19966;-55
2022/05/05 15:11:46;;;;;;;;;;;;;;;;;;5075976;28;19916;-57
2022/05/05 15:14:13;;;;;;;;;;;;;;;;;;5075482;28;19917;-54
2022/05/05 15:16:39;;;;;;;;;;;;;;;;;;5075518;28;19913;-55
2022/05/05 15:19:06;;;;;;;;;;;;;;;;;;5075377;28;19922;-58
2022/05/05 15:21:32;;;;;;;;;;;;;;;;;;5075544;28;19918;-54
2022/05/05 15:23:59;;;;;;;;;;;;;;;;;;5056194;28;19967;-56
2022/05/05 15:26:25;;;;;;;;;;;;;;;;;;5055520;28;19986;-53
2022/05/05 15:28:56;;;;;;;;;;;;;;;;;;5055386;28;20437;-49
2022/05/05 15:31:23;;;;;;;;;;;;;;;;;;5055207;28;20278;-56
2022/05/05 15:33:49;;;;;;;;;;;;;;;;;;5075250;28;19963;-48
2022/05/05 15:36:16;;;;;;;;;;;;;;;;;;5074301;28;19909;-52
2022/05/05 15:38:42;;;;;;;;;;;;;;;;;;5075122;28;19915;-50
2022/05/05 15:41:09;;;;;;;;;;;;;;;;;;5075008;28;19916;-52
2022/05/05 15:43:35;;;;;;;;;;;;;;;;;;5075156;28;19908;-47
2022/05/05 15:46:01;;;;;;;;;;;;;;;;;;5075005;28;19913;-57
2022/05/05 15:48:28;;;;;;;;;;;;;;;;;;5074868;28;19908;-52
2022/05/05 15:50:54;;;;;;;;;;;;;;;;;;5074515;28;20267;-56
2022/05/05 15:53:21;;;;;;;;;;;;;;;;;;5074790;28;20279;-54
2022/05/05 15:55:47;;;;;;;;;;;;;;;;;;5075038;28;20315;-53
2022/05/05 15:58:14;;;;;;;;;;;;;;;;;;5074212;28;19909;-54
2022/05/05 16:00:40;;;;;;;;;;;;;;;;;;5074870;28;20385;-55
2022/05/05 16:03:07;;;;;;;;;;;;;;;;;;5074504;28;20333;-57
2022/05/05 16:05:33;;;;;;;;;;;;;;;;;;5074867;28;19909;-51
2022/05/05 16:08:00;;;;;;;;;;;;;;;;;;5074465;28;20375;-56
2022/05/05 16:10:27;;;;;;;;;;;;;;;;;;5074557;28;20424;-53
2022/05/05 16:12:53;;;;;;;;;;;;;;;;;;5074105;28;19919;-50
2022/05/05 16:15:19;;;;;;;;;;;;;;;;;;5074391;28;19923;-60
2022/05/05 16:17:46;;;;;;;;;;;;;;;;;;5074346;28;19913;-51
2022/05/05 16:20:12;;;;;;;;;;;;;;;;;;5074469;28;19916;-52
2022/05/05 16:22:39;;;;;;;;;;;;;;;;;;5074232;28;20298;-55
2022/05/05 16:30:34;;;;;;;;;;;;;;;;;;5074357;28;19983;-56
2022/05/05 16:33:01;;;;;;;;;;;;;;;;;;5073975;28;19915;-55
2022/05/05 16:35:28;;;;;;;;;;;;;;;;;;5074066;28;19913;-55
2022/05/05 16:37:54;;;;;;;;;;;;;;;;;;5073909;28;19913;-56
2022/05/05 16:40:23;;;;;;;;;;;;;;;;;;5073943;28;19954;-53
2022/05/05 16:42:50;;;;;;;;;;;;;;;;;;5074070;28;20375;-57
2022/05/05 16:45:16;;;;;;;;;;;;;;;;;;5073496;28;20317;-55
2022/05/05 16:47:43;;;;;;;;;;;;;;;;;;5073562;28;19912;-55
2022/05/05 16:50:09;;;;;;;;;;;;;;;;;;5073934;28;19912;-54
2022/05/05 16:52:36;;;;;;;;;;;;;;;;;;5073645;28;19934;-50
2022/05/05 16:55:02;;;;;;;;;;;;;;;;;;5073519;28;19977;-52
2022/05/05 16:57:29;;;;;;;;;;;;;;;;;;5073703;28;19915;-47
2022/05/05 16:59:55;;;;;;;;;;;;;;;;;;5073496;28;19908;-50
2022/05/05 17:02:22;;;;;;;;;;;;;;;;;;5073512;28;19915;-49
2022/05/05 17:04:48;;;;;;;;;;;;;;;;;;5073365;28;19915;-49
2022/05/05 17:07:14;;;;;;;;;;;;;;;;;;5073181;28;19924;-48
2022/05/05 17:09:41;;;;;;;;;;;;;;;;;;5073719;28;20378;-46
2022/05/05 17:12:07;;;;;;;;;;;;;;;;;;5073505;28;19909;-51
2022/05/05 17:14:34;;;;;;;;;;;;;;;;;;5073403;28;19917;-55
2022/05/05 17:17:00;;;;;;;;;;;;;;;;;;5073125;28;19999;-47
2022/05/05 17:19:27;;;;;;;;;;;;;;;;;;5073359;28;19909;-52
2022/05/05 17:21:53;;;;;;;;;;;;;;;;;;5073405;28;20240;-53
2022/05/05 17:24:20;;;;;;;;;;;;;;;;;;5073138;28;19973;-50
2022/05/05 17:26:46;;;;;;;;;;;;;;;;;;5073454;28;19915;-50
2022/05/05 17:29:13;;;;;;;;;;;;;;;;;;5072930;28;19940;-53
2022/05/05 17:31:39;;;;;;;;;;;;;;;;;;5073035;28;20399;-49
2022/05/05 17:34:06;;;;;;;;;;;;;;;;;;5072738;28;20341;-51
2022/05/05 17:36:32;;;;;;;;;;;;;;;;;;5073255;28;20019;-55
2022/05/05 17:38:59;;;;;;;;;;;;;;;;;;5072996;28;19910;-48